メインページ
METAR-TAF:

METAR-TAF

空港 :

アンカラ-エセンボーア, トルコ

エセンボーア国際空港

緯度: 40-07N, 経度: 032-59E, 海抜: 953m

現時点の気象観測

当レポートは31分前の11:20(UTC)に作成
南西の風 8kt、から西の間で変化する
気温 19°C
湿度 30%
気圧 1017 hPa
視程10km以上
高度4000ftの雲は散在している

METAR: LTAC 241120Z 23008KT 170V270 9999 SCT040 19/01 Q1017 NOSIG RMK RWY21L 21008KT 140V260 RWY03L 21006KT 150V300 RWY21R 19007KT 100V240

時間: 14:51 (11:51 UTC)

予報

当レポートは1時間11分前の10:40(UTC)に作成
予報は24日の 12時(UTC)から 25日の 12時(UTC)まで有効
変向風 2kt
視程10km以上
高度4000ftの雲は散在している
24日の 15時(UTC)から 24日の 17時(UTC)まで徐々に
視程10km以上
1,500メートル以下は雲なし、積乱雲なし
25日の 06時(UTC)から 25日の 08時(UTC)まで徐々に
高度4000ftの雲は散在している

TAF: LTAC 241040Z 2412/2512 VRB02KT 9999 SCT040 BECMG 2415/2417 CAVOK BECMG 2506/2508 SCT040

4,000以上の空港の気象観測と天気予報(METAR報とTAF報)

利用可能な観測所は地図上に黄色い丸と赤い丸で示す。

丸の上にカーソルを重ねると観測所名を参照できる。

次にクリックすると気象観測と天気予報を参照できる。

マップの切り替え:黒色「×」印の緑ボタンをクリックして拡大、「-」印の緑ボタンをクリックして縮小、緑色の三角印をクリックして隣りの地図に切り替え


METAR-TAF: